createdAt,value
2019-02-10T00:01:05.947Z,9.33
2019-02-10T00:03:34.935Z,7.97
2019-02-10T00:06:04.087Z,10.30
2019-02-10T00:08:33.178Z,9.73
2019-02-10T00:11:02.148Z,12.10
2019-02-10T00:13:33.431Z,11.73
2019-02-10T00:16:05.591Z,8.13
2019-02-10T00:18:34.632Z,8.60
2019-02-10T00:21:03.730Z,10.53
2019-02-10T00:23:32.720Z,11.23
2019-02-10T00:26:01.747Z,12.97
2019-02-10T00:28:30.806Z,7.20
2019-02-10T00:30:59.776Z,10.17
2019-02-10T00:33:28.790Z,8.07
2019-02-10T00:35:57.750Z,11.07
2019-02-10T00:38:26.778Z,9.67
2019-02-10T00:40:55.751Z,9.63
2019-02-10T00:43:24.721Z,13.33
2019-02-10T00:45:53.909Z,12.17
2019-02-10T00:48:22.938Z,10.40
2019-02-10T00:50:51.990Z,7.90
2019-02-10T00:53:21.034Z,8.07
2019-02-10T00:55:49.998Z,14.37
2019-02-10T00:58:18.959Z,12.27
2019-02-10T01:00:47.959Z,10.40
2019-02-10T01:03:22.554Z,16.10
2019-02-10T01:05:51.531Z,12.27
2019-02-10T01:08:20.493Z,19.47
2019-02-10T01:10:49.682Z,8.13
2019-02-10T01:13:18.653Z,9.97
2019-02-10T01:15:47.685Z,12.23
2019-02-10T01:18:16.653Z,10.57
2019-02-10T01:20:45.703Z,7.80
2019-02-10T01:23:15.007Z,8.30
2019-02-10T01:25:44.139Z,10.67
2019-02-10T01:28:13.239Z,12.73
2019-02-10T01:30:42.592Z,15.57
2019-02-10T01:33:11.622Z,13.90
2019-02-10T01:35:40.610Z,8.30
2019-02-10T01:38:09.663Z,8.17
2019-02-10T01:40:38.929Z,6.63
2019-02-10T01:43:07.954Z,6.53
2019-02-10T01:45:36.993Z,11.77
2019-02-10T01:48:06.022Z,8.70
2019-02-10T01:50:34.993Z,12.27
2019-02-10T01:53:03.973Z,9.83
2019-02-10T01:55:33.101Z,10.93
2019-02-10T01:58:02.368Z,8.43
2019-02-10T02:00:31.519Z,12.80
2019-02-10T02:03:00.490Z,11.53
2019-02-10T02:05:29.448Z,10.80
2019-02-10T02:07:59.848Z,11.13
2019-02-10T02:10:29.190Z,12.27
2019-02-10T02:12:58.154Z,9.03
2019-02-10T02:15:27.254Z,9.23
2019-02-10T02:17:56.212Z,9.57
2019-02-10T02:20:25.187Z,13.43
2019-02-10T02:22:54.338Z,11.67
2019-02-10T02:25:23.343Z,13.13
2019-02-10T02:27:52.305Z,12.47
2019-02-10T02:30:21.288Z,12.20
2019-02-10T02:32:50.312Z,12.67
2019-02-10T02:35:19.298Z,10.67
2019-02-10T02:37:48.265Z,9.90
2019-02-10T02:40:17.241Z,10.93
2019-02-10T02:42:46.292Z,9.83
2019-02-10T02:45:15.443Z,11.33
2019-02-10T02:47:44.401Z,10.17
2019-02-10T02:50:13.391Z,12.97
2019-02-10T02:52:42.403Z,9.97
2019-02-10T02:55:11.518Z,12.10
2019-02-10T02:57:40.480Z,11.40
2019-02-10T03:00:10.799Z,11.17
2019-02-10T03:02:39.819Z,18.83
2019-02-10T03:05:10.290Z,7.67
2019-02-10T03:07:39.271Z,13.67
2019-02-10T03:10:09.391Z,15.07
2019-02-10T03:12:38.354Z,9.23
2019-02-10T03:15:08.974Z,13.67
2019-02-10T03:17:38.008Z,14.40
2019-02-10T03:20:10.491Z,8.47
2019-02-10T03:22:39.581Z,12.50
2019-02-10T03:25:08.899Z,8.83
2019-02-10T03:27:37.855Z,8.03
2019-02-10T03:30:11.786Z,9.87
2019-02-10T03:32:41.184Z,12.77
2019-02-10T03:35:10.395Z,8.57
2019-02-10T03:37:39.366Z,11.90
2019-02-10T03:40:09.971Z,10.63
2019-02-10T03:42:39.015Z,15.67
2019-02-10T03:45:09.413Z,11.97
2019-02-10T03:47:38.491Z,12.77
2019-02-10T03:50:09.675Z,7.73
2019-02-10T03:52:38.728Z,9.60
2019-02-10T03:55:10.563Z,8.93
2019-02-10T03:57:39.827Z,10.70
2019-02-10T04:00:12.992Z,13.80
2019-02-10T04:02:42.211Z,7.57
2019-02-10T04:05:11.760Z,13.17
2019-02-10T04:07:40.731Z,12.80
2019-02-10T04:10:10.851Z,19.90
2019-02-10T04:12:39.892Z,9.73
2019-02-10T04:15:09.182Z,9.13
2019-02-10T04:17:38.337Z,14.37
2019-02-10T04:20:09.033Z,11.03
2019-02-10T04:22:38.025Z,7.07
2019-02-10T04:25:07.554Z,11.63
2019-02-10T04:27:36.526Z,10.27
2019-02-10T04:30:09.287Z,8.23
2019-02-10T04:32:38.565Z,11.10
2019-02-10T04:35:07.586Z,13.77
2019-02-10T04:37:44.982Z,12.90
2019-02-10T04:40:07.863Z,10.30
2019-02-10T04:42:36.837Z,17.27
2019-02-10T04:45:06.342Z,10.93
2019-02-10T04:47:35.336Z,12.37
2019-02-10T04:50:05.920Z,8.20
2019-02-10T04:52:35.078Z,9.40
2019-02-10T04:55:04.982Z,10.03
2019-02-10T04:57:33.980Z,14.93
2019-02-10T05:00:03.215Z,10.37
2019-02-10T05:02:32.185Z,8.47
2019-02-10T05:05:01.253Z,15.70
2019-02-10T05:07:30.225Z,9.97
2019-02-10T05:09:59.181Z,14.93
2019-02-10T05:12:28.206Z,14.10
2019-02-10T05:14:57.179Z,13.33
2019-02-10T05:17:26.191Z,10.00
2019-02-10T05:19:55.148Z,9.33
2019-02-10T05:22:24.218Z,14.77
2019-02-10T05:24:53.243Z,7.80
2019-02-10T05:27:22.220Z,9.53
2019-02-10T05:29:51.282Z,9.27
2019-02-10T05:32:20.256Z,7.23
2019-02-10T05:34:49.217Z,13.43
2019-02-10T05:37:18.190Z,10.07
2019-02-10T05:39:47.256Z,5.50
2019-02-10T05:42:16.290Z,11.80
2019-02-10T05:44:45.253Z,11.27
2019-02-10T05:47:14.238Z,8.53
2019-02-10T05:49:43.205Z,9.87
2019-02-10T05:52:12.339Z,6.60
2019-02-10T05:54:41.302Z,6.83
2019-02-10T05:57:10.283Z,8.40
2019-02-10T05:59:39.219Z,8.80
2019-02-10T06:02:19.097Z,6.90
2019-02-10T06:04:48.054Z,8.43
2019-02-10T06:07:17.420Z,6.33
2019-02-10T06:09:46.439Z,8.23
2019-02-10T06:12:15.419Z,11.73
2019-02-10T06:14:44.382Z,12.03
2019-02-10T06:17:16.490Z,7.00
2019-02-10T06:19:45.458Z,8.77
2019-02-10T06:22:14.435Z,11.57
2019-02-10T06:24:43.396Z,6.90
2019-02-10T06:27:12.364Z,6.40
2019-02-10T06:29:41.350Z,10.27
2019-02-10T06:32:10.388Z,6.43
2019-02-10T06:34:39.340Z,8.97
2019-02-10T06:37:08.386Z,7.13
2019-02-10T06:39:37.338Z,6.13
2019-02-10T06:42:06.339Z,8.37
2019-02-10T06:44:35.291Z,10.00
2019-02-10T06:47:04.294Z,8.50
2019-02-10T06:49:33.269Z,5.87
2019-02-10T06:52:02.231Z,10.97
2019-02-10T06:54:31.214Z,8.00
2019-02-10T06:57:00.182Z,7.73
2019-02-10T06:59:33.547Z,6.40
2019-02-10T07:02:04.138Z,6.97
2019-02-10T07:04:33.294Z,7.03
2019-02-10T07:07:02.255Z,6.03
2019-02-10T07:09:31.233Z,6.40
2019-02-10T07:12:03.429Z,5.37
2019-02-10T07:14:32.491Z,8.67
2019-02-10T07:17:04.504Z,5.30
2019-02-10T07:19:53.260Z,5.03
2019-02-10T07:22:34.209Z,4.77
2019-02-10T07:25:18.278Z,5.70
2019-02-10T07:28:02.105Z,5.93
2019-02-10T07:30:37.026Z,5.07
2019-02-10T07:33:09.031Z,5.63
2019-02-10T07:35:52.344Z,4.90
2019-02-10T07:38:39.469Z,5.87
2019-02-10T07:41:36.903Z,4.70
2019-02-10T07:44:17.709Z,4.60
2019-02-10T07:47:13.269Z,3.70
2019-02-10T07:50:14.039Z,3.67
2019-02-10T07:52:46.099Z,4.43
2019-02-10T07:55:35.470Z,7.27
2019-02-10T07:58:13.391Z,4.70
2019-02-10T08:01:00.331Z,3.23
2019-02-10T08:03:32.447Z,6.87
2019-02-10T08:06:15.769Z,4.80
2019-02-10T08:08:59.625Z,5.27
2019-02-10T08:11:37.395Z,6.47
2019-02-10T08:14:25.610Z,5.00
2019-02-10T08:17:14.186Z,5.50
2019-02-10T08:20:00.929Z,4.17
2019-02-10T08:22:45.284Z,5.43
2019-02-10T08:25:23.235Z,2.90
2019-02-10T08:28:06.566Z,3.83
2019-02-10T08:30:57.766Z,5.60
2019-02-10T08:33:35.799Z,3.80
2019-02-10T08:36:25.916Z,3.50
2019-02-10T08:38:58.080Z,3.73
2019-02-10T08:41:57.710Z,2.90
2019-02-10T08:44:49.438Z,3.10
2019-02-10T08:47:38.021Z,3.10
2019-02-10T08:50:43.546Z,3.67
2019-02-10T08:53:15.799Z,4.83
2019-02-10T08:55:45.155Z,4.10
2019-02-10T08:58:14.147Z,4.43
2019-02-10T09:00:43.163Z,4.13
2019-02-10T09:03:19.243Z,3.73
2019-02-10T09:05:42.842Z,3.27
2019-02-10T09:08:11.929Z,4.17
2019-02-10T09:10:40.927Z,5.50
2019-02-10T09:13:09.926Z,3.20
2019-02-10T09:15:39.808Z,6.03
2019-02-10T09:18:08.782Z,5.30
2019-02-10T09:20:37.763Z,3.30
2019-02-10T09:23:06.810Z,4.73
2019-02-10T09:25:35.881Z,3.73
2019-02-10T09:28:05.026Z,2.77
2019-02-10T09:30:34.067Z,3.50
2019-02-10T09:33:03.071Z,4.13
2019-02-10T09:35:32.257Z,5.20
2019-02-10T09:38:01.256Z,3.40
2019-02-10T09:40:30.211Z,4.30
2019-02-10T09:42:59.198Z,3.63
2019-02-10T09:45:28.165Z,4.20
2019-02-10T09:47:57.331Z,4.93
2019-02-10T09:50:26.299Z,4.90
2019-02-10T09:52:55.323Z,4.43
2019-02-10T09:55:24.288Z,5.13
2019-02-10T09:57:53.360Z,5.70
2019-02-10T10:00:22.341Z,4.60
2019-02-10T10:02:51.394Z,4.03
2019-02-10T10:05:20.368Z,4.30
2019-02-10T10:07:49.378Z,7.07
2019-02-10T10:10:18.339Z,6.23
2019-02-10T10:12:47.331Z,6.17
2019-02-10T10:15:17.424Z,4.57
2019-02-10T10:17:46.413Z,4.20
2019-02-10T10:20:19.109Z,4.30
2019-02-10T10:22:48.165Z,4.50
2019-02-10T10:25:17.200Z,4.60
2019-02-10T10:27:46.216Z,5.00
2019-02-10T10:30:18.267Z,3.80
2019-02-10T10:32:47.250Z,5.60
2019-02-10T10:35:16.290Z,3.83
2019-02-10T10:37:45.271Z,3.73
2019-02-10T10:40:14.502Z,3.03
2019-02-10T10:42:43.514Z,3.00
2019-02-10T10:45:14.308Z,3.57
2019-02-10T10:47:43.570Z,3.83
2019-02-10T10:50:14.112Z,3.53
2019-02-10T10:52:43.175Z,4.30
2019-02-10T10:55:13.104Z,3.80
2019-02-10T10:57:42.224Z,8.17
2019-02-10T11:00:15.187Z,4.03
2019-02-10T11:02:44.268Z,2.63
2019-02-10T11:05:14.849Z,3.10
2019-02-10T11:07:44.334Z,2.63
2019-02-10T11:10:13.662Z,3.30
2019-02-10T11:12:42.769Z,4.03
2019-02-10T11:15:13.898Z,3.30
2019-02-10T11:17:42.862Z,4.33
2019-02-10T11:20:12.586Z,5.83
2019-02-10T11:22:41.775Z,3.50
2019-02-10T11:25:11.607Z,4.97
2019-02-10T11:27:40.678Z,2.70
2019-02-10T11:30:14.833Z,2.47
2019-02-10T11:32:43.851Z,2.80
2019-02-10T11:35:13.291Z,2.93
2019-02-10T11:37:42.479Z,3.10
2019-02-10T11:40:14.578Z,4.53
2019-02-10T11:42:43.578Z,6.17
2019-02-10T11:45:16.671Z,2.77
2019-02-10T11:47:45.626Z,3.33
2019-02-10T11:50:15.058Z,3.40
2019-02-10T11:52:44.118Z,2.80
2019-02-10T11:55:13.453Z,7.40
2019-02-10T11:57:42.499Z,2.60
2019-02-10T12:00:18.318Z,2.97
2019-02-10T12:02:47.323Z,4.10
2019-02-10T12:05:16.352Z,2.50
2019-02-10T12:07:45.314Z,2.10
2019-02-10T12:10:14.650Z,2.20
2019-02-10T12:12:43.612Z,2.30
2019-02-10T12:15:14.907Z,3.37
2019-02-10T12:17:43.978Z,2.43
2019-02-10T12:20:14.510Z,2.33
2019-02-10T12:22:49.974Z,2.50
2019-02-10T12:25:14.303Z,2.53
2019-02-10T12:27:43.343Z,12.07
2019-02-10T12:30:17.062Z,2.10
2019-02-10T12:32:46.036Z,2.53
2019-02-10T12:35:15.033Z,2.50
2019-02-10T12:37:43.982Z,2.30
2019-02-10T12:40:13.044Z,3.40
2019-02-10T12:42:42.031Z,2.40
2019-02-10T12:45:12.585Z,2.73
2019-02-10T12:47:41.675Z,2.40
2019-02-10T12:50:12.503Z,2.30
2019-02-10T12:52:41.651Z,2.63
2019-02-10T12:55:12.106Z,2.40
2019-02-10T12:57:41.144Z,2.40
2019-02-10T13:00:13.279Z,4.27
2019-02-10T13:02:42.245Z,4.20
2019-02-10T13:05:11.382Z,3.70
2019-02-10T13:07:40.620Z,2.60
2019-02-10T13:10:15.809Z,3.50
2019-02-10T13:12:44.850Z,3.63
2019-02-10T13:15:14.202Z,4.47
2019-02-10T13:17:43.348Z,3.10
2019-02-10T13:20:13.499Z,3.33
2019-02-10T13:22:42.520Z,2.63
2019-02-10T13:25:12.929Z,2.47
2019-02-10T13:27:41.975Z,3.30
2019-02-10T13:30:17.905Z,4.67
2019-02-10T13:32:46.947Z,1.90
2019-02-10T13:35:16.014Z,2.10
2019-02-10T13:37:45.062Z,2.60
2019-02-10T13:40:18.342Z,2.80
2019-02-10T13:42:47.379Z,3.03
2019-02-10T13:45:16.369Z,2.13
2019-02-10T13:47:45.317Z,1.90
2019-02-10T13:50:16.568Z,1.97
2019-02-10T13:52:45.608Z,1.80
2019-02-10T13:55:15.826Z,1.80
2019-02-10T13:57:44.855Z,1.20
2019-02-10T14:00:22.274Z,1.83
2019-02-10T14:02:51.233Z,3.40
2019-02-10T14:05:20.380Z,1.03
2019-02-10T14:07:50.783Z,0.90
2019-02-10T14:10:25.785Z,1.17
2019-02-10T14:12:50.842Z,1.00
2019-02-10T14:15:20.488Z,1.37
2019-02-10T14:17:49.464Z,1.50
2019-02-10T14:20:21.604Z,2.10
2019-02-10T14:22:50.565Z,1.37
2019-02-10T14:25:19.563Z,1.10
2019-02-10T14:27:48.529Z,1.70
2019-02-10T14:30:22.927Z,1.57
2019-02-10T14:32:51.906Z,1.10
2019-02-10T14:35:20.986Z,1.30
2019-02-10T14:37:49.958Z,1.30
2019-02-10T14:40:19.043Z,1.90
2019-02-10T14:42:48.256Z,2.03
2019-02-10T14:45:17.299Z,2.10
2019-02-10T14:47:46.270Z,1.53
2019-02-10T14:50:16.810Z,1.73
2019-02-10T14:52:46.046Z,0.97
2019-02-10T14:55:15.111Z,1.10
2019-02-10T14:57:44.250Z,1.07
2019-02-10T15:00:17.174Z,1.70
2019-02-10T15:02:46.155Z,1.40
2019-02-10T15:05:15.172Z,1.03
2019-02-10T15:07:44.302Z,1.10
2019-02-10T15:10:18.483Z,0.80
2019-02-10T15:12:47.642Z,1.00
2019-02-10T15:15:16.808Z,1.43
2019-02-10T15:17:45.802Z,1.07
2019-02-10T15:20:14.863Z,1.07
2019-02-10T15:22:43.888Z,0.90
2019-02-10T15:25:14.383Z,1.43
2019-02-10T15:27:43.375Z,0.90
2019-02-10T15:30:14.276Z,1.53
2019-02-10T15:32:43.266Z,1.07
2019-02-10T15:35:12.530Z,0.93
2019-02-10T15:37:41.586Z,1.10
2019-02-10T15:40:12.180Z,1.33
2019-02-10T15:42:41.236Z,0.90
2019-02-10T15:45:14.055Z,0.70
2019-02-10T15:47:43.569Z,1.00
2019-02-10T15:50:16.030Z,1.10
2019-02-10T15:52:45.122Z,1.10
2019-02-10T15:55:14.528Z,1.30
2019-02-10T15:57:43.488Z,1.10
2019-02-10T16:00:18.335Z,1.20
2019-02-10T16:02:47.378Z,1.00
2019-02-10T16:05:16.405Z,1.40
2019-02-10T16:07:45.498Z,1.40
2019-02-10T16:10:14.462Z,2.70
2019-02-10T16:12:43.481Z,1.00
2019-02-10T16:15:12.974Z,1.57
2019-02-10T16:17:42.115Z,1.10
2019-02-10T16:20:13.026Z,1.00
2019-02-10T16:22:42.057Z,1.00
2019-02-10T16:25:11.158Z,1.13
2019-02-10T16:27:40.210Z,1.00
2019-02-10T16:30:16.362Z,1.07
2019-02-10T16:32:50.099Z,1.10
2019-02-10T16:35:16.118Z,1.63
2019-02-10T16:37:45.111Z,1.13
2019-02-10T16:40:18.944Z,1.40
2019-02-10T16:42:47.921Z,1.63
2019-02-10T16:45:17.006Z,1.23
2019-02-10T16:47:46.104Z,1.30
2019-02-10T16:50:16.527Z,1.37
2019-02-10T16:52:45.568Z,1.20
2019-02-10T16:55:19.679Z,1.40
2019-02-10T16:57:48.658Z,1.93
2019-02-10T17:00:17.978Z,1.60
2019-02-10T17:02:46.991Z,2.03
2019-02-10T17:05:16.209Z,1.27
2019-02-10T17:07:45.253Z,1.30
2019-02-10T17:10:17.493Z,1.50
2019-02-10T17:12:46.778Z,1.97
2019-02-10T17:15:15.902Z,1.50
2019-02-10T17:17:44.939Z,1.20
2019-02-10T17:20:18.084Z,0.97
2019-02-10T17:22:47.270Z,1.07
2019-02-10T17:25:27.602Z,1.20
2019-02-10T17:27:56.618Z,1.30
2019-02-10T17:30:25.667Z,1.23
2019-02-10T17:32:54.708Z,1.10
2019-02-10T17:35:23.719Z,1.10
2019-02-10T17:37:52.744Z,1.37
2019-02-10T17:40:33.582Z,1.10
2019-02-10T17:43:03.107Z,1.30
2019-02-10T17:45:32.322Z,1.13
2019-02-10T17:48:01.539Z,1.37
2019-02-10T17:50:30.663Z,2.30
2019-02-10T17:52:59.608Z,1.30
2019-02-10T17:55:28.604Z,1.23
2019-02-10T17:57:57.620Z,1.60
2019-02-10T18:00:34.302Z,1.20
2019-02-10T18:03:03.482Z,1.67
2019-02-10T18:05:32.616Z,1.33
2019-02-10T18:08:01.670Z,1.20
2019-02-10T18:10:30.638Z,1.43
2019-02-10T18:12:59.611Z,1.47
2019-02-10T18:15:46.723Z,1.33
2019-02-10T18:18:23.526Z,1.80
2019-02-10T18:20:54.128Z,1.40
2019-02-10T18:23:36.699Z,1.33
2019-02-10T18:26:07.285Z,1.60
2019-02-10T18:28:40.379Z,1.53
2019-02-10T18:31:13.961Z,1.23
2019-02-10T18:33:53.374Z,1.37
2019-02-10T18:36:24.025Z,1.30
2019-02-10T18:38:57.615Z,1.43
2019-02-10T18:41:39.142Z,1.30
2019-02-10T18:44:06.524Z,1.30
2019-02-10T18:46:37.140Z,1.40
2019-02-10T18:49:24.169Z,1.60
2019-02-10T18:52:09.880Z,1.60
2019-02-10T18:54:49.398Z,1.40
2019-02-10T18:57:20.018Z,1.60
2019-02-10T19:00:08.943Z,1.70
2019-02-10T19:02:39.570Z,1.90
2019-02-10T19:05:15.937Z,1.67
2019-02-10T19:07:52.484Z,1.73
2019-02-10T19:10:23.167Z,1.40
2019-02-10T19:12:56.565Z,3.40
2019-02-10T19:15:43.543Z,1.30
2019-02-10T19:18:14.195Z,1.63
2019-02-10T19:21:00.685Z,1.30
2019-02-10T19:23:37.022Z,1.30
2019-02-10T19:26:07.651Z,1.40
2019-02-10T19:28:44.527Z,1.63
2019-02-10T19:31:18.055Z,2.80
2019-02-10T19:33:48.676Z,1.37
2019-02-10T19:36:19.270Z,1.27
2019-02-10T19:38:52.724Z,1.50
2019-02-10T19:41:35.337Z,2.30
2019-02-10T19:44:25.320Z,1.60
2019-02-10T19:46:55.939Z,1.50
2019-02-10T19:49:41.584Z,1.60
2019-02-10T19:52:24.183Z,1.70
2019-02-10T19:54:54.778Z,1.30
2019-02-10T19:57:28.283Z,2.07
2019-02-10T20:00:01.848Z,1.63
2019-02-10T20:02:32.472Z,1.60
2019-02-10T20:05:05.814Z,1.67
2019-02-10T20:07:36.430Z,3.83
2019-02-10T20:10:08.891Z,2.07
2019-02-10T20:12:39.533Z,1.60
2019-02-10T20:15:11.586Z,1.60
2019-02-10T20:17:58.462Z,1.70
2019-02-10T20:20:29.099Z,1.53
2019-02-10T20:22:59.740Z,1.70
2019-02-10T20:25:30.559Z,1.37
2019-02-10T20:28:01.201Z,1.50
2019-02-10T20:30:31.899Z,2.37
2019-02-10T20:33:17.606Z,1.87
2019-02-10T20:35:54.602Z,1.73
2019-02-10T20:38:25.342Z,1.90
2019-02-10T20:40:55.925Z,1.77
2019-02-10T20:43:35.269Z,1.53
2019-02-10T20:46:21.264Z,2.40
2019-02-10T20:48:51.910Z,1.60
2019-02-10T20:51:22.590Z,1.40
2019-02-10T20:54:01.961Z,1.60
2019-02-10T20:56:35.242Z,3.17
2019-02-10T20:59:22.054Z,2.50
2019-02-10T21:02:01.613Z,1.40
2019-02-10T21:04:32.215Z,1.30
2019-02-10T21:07:02.874Z,1.43
2019-02-10T21:09:39.259Z,1.43
2019-02-10T21:12:24.889Z,1.43
2019-02-10T21:15:01.168Z,1.37
2019-02-10T21:17:34.506Z,1.40
2019-02-10T21:20:05.649Z,2.03
2019-02-10T21:22:36.262Z,1.40
2019-02-10T21:25:14.623Z,2.13
2019-02-10T21:27:57.197Z,1.80
2019-02-10T21:30:27.902Z,1.40
2019-02-10T21:33:00.958Z,1.63
2019-02-10T21:35:37.046Z,1.67
2019-02-10T21:38:07.767Z,1.50
2019-02-10T21:40:41.300Z,1.40
2019-02-10T21:43:15.146Z,1.67
2019-02-10T21:45:48.417Z,1.77
2019-02-10T21:48:21.739Z,1.03
2019-02-10T21:50:50.711Z,1.50
2019-02-10T21:53:19.809Z,1.17
2019-02-10T21:55:48.761Z,1.47
2019-02-10T21:58:17.717Z,1.30
2019-02-10T22:00:46.690Z,1.60
2019-02-10T22:03:15.756Z,1.47
2019-02-10T22:05:44.730Z,1.10
2019-02-10T22:08:13.755Z,1.10
2019-02-10T22:10:42.706Z,1.73
2019-02-10T22:13:11.732Z,1.07
2019-02-10T22:15:40.695Z,1.30
2019-02-10T22:18:09.709Z,1.10
2019-02-10T22:20:38.774Z,1.30
2019-02-10T22:23:07.770Z,1.00
2019-02-10T22:25:36.738Z,1.23
2019-02-10T22:28:05.779Z,1.07
2019-02-10T22:30:34.759Z,1.30
2019-02-10T22:33:03.889Z,1.73
2019-02-10T22:35:32.851Z,1.30
2019-02-10T22:38:01.827Z,0.80
2019-02-10T22:40:30.828Z,1.10
2019-02-10T22:42:59.814Z,1.13
2019-02-10T22:45:28.827Z,1.10
2019-02-10T22:47:57.781Z,1.00
2019-02-10T22:50:26.770Z,1.10
2019-02-10T22:52:55.730Z,1.20
2019-02-10T22:55:24.715Z,1.00
2019-02-10T22:57:53.790Z,1.30
2019-02-10T23:00:32.898Z,1.00
2019-02-10T23:03:01.898Z,1.10
2019-02-10T23:05:30.910Z,1.37
2019-02-10T23:07:59.866Z,1.10
2019-02-10T23:10:28.847Z,1.13
2019-02-10T23:12:57.879Z,1.10
2019-02-10T23:15:26.863Z,1.10
2019-02-10T23:17:55.820Z,1.00
2019-02-10T23:20:24.790Z,1.20
2019-02-10T23:22:53.762Z,1.03
2019-02-10T23:25:22.798Z,1.20
2019-02-10T23:27:51.749Z,1.60
2019-02-10T23:30:20.722Z,1.30
2019-02-10T23:32:49.713Z,4.73
2019-02-10T23:35:18.764Z,1.20
2019-02-10T23:37:47.745Z,1.20
2019-02-10T23:40:16.792Z,1.37
2019-02-10T23:42:45.745Z,0.90
2019-02-10T23:45:14.717Z,1.03
2019-02-10T23:47:43.766Z,1.00
2019-02-10T23:50:12.876Z,1.10
2019-02-10T23:52:41.820Z,1.20
2019-02-10T23:55:10.942Z,1.43
2019-02-10T23:57:39.958Z,3.57
